sensor_id;sensor_type;location;lat;lon;timestamp;pressure;altitude;pressure_sealevel;temperature
48854;BMP280;34673;52.808;17.856;2023-07-28T00:01:21;99370.91;;;18.34
48854;BMP280;34673;52.808;17.856;2023-07-28T00:03:48;99369.06;;;18.36
48854;BMP280;34673;52.808;17.856;2023-07-28T00:06:15;99371.25;;;18.44
48854;BMP280;34673;52.808;17.856;2023-07-28T00:08:42;99355.72;;;18.41
48854;BMP280;34673;52.808;17.856;2023-07-28T00:11:10;99354.84;;;18.40
48854;BMP280;34673;52.808;17.856;2023-07-28T00:13:39;99366.69;;;18.47
48854;BMP280;34673;52.808;17.856;2023-07-28T00:16:07;99369.88;;;18.52
48854;BMP280;34673;52.808;17.856;2023-07-28T00:18:56;99368.69;;;18.58
48854;BMP280;34673;52.808;17.856;2023-07-28T00:21:27;99356.78;;;18.52
48854;BMP280;34673;52.808;17.856;2023-07-28T00:24:03;99362.63;;;18.57
48854;BMP280;34673;52.808;17.856;2023-07-28T00:26:44;99348.75;;;18.55
48854;BMP280;34673;52.808;17.856;2023-07-28T00:30:06;99352.16;;;18.57
48854;BMP280;34673;52.808;17.856;2023-07-28T00:32:40;99324.13;;;18.44
48854;BMP280;34673;52.808;17.856;2023-07-28T00:35:11;99344.28;;;18.57
48854;BMP280;34673;52.808;17.856;2023-07-28T00:37:44;99346.13;;;18.55
48854;BMP280;34673;52.808;17.856;2023-07-28T00:40:14;99342.03;;;18.51
48854;BMP280;34673;52.808;17.856;2023-07-28T00:42:41;99314.16;;;18.34
48854;BMP280;34673;52.808;17.856;2023-07-28T00:45:17;99323.28;;;18.43
48854;BMP280;34673;52.808;17.856;2023-07-28T00:47:55;99315.03;;;18.35
48854;BMP280;34673;52.808;17.856;2023-07-28T00:50:25;99323.44;;;18.40
48854;BMP280;34673;52.808;17.856;2023-07-28T00:53:16;99335.91;;;18.51
48854;BMP280;34673;52.808;17.856;2023-07-28T01:04:27;99299.47;;;18.32
48854;BMP280;34673;52.808;17.856;2023-07-28T01:16:46;99318.19;;;18.40
48854;BMP280;34673;52.808;17.856;2023-07-28T01:20:46;99312.22;;;18.38
48854;BMP280;34673;52.808;17.856;2023-07-28T01:37:05;99295.88;;;18.19
48854;BMP280;34673;52.808;17.856;2023-07-28T01:40:43;99286.50;;;18.14
48854;BMP280;34673;52.808;17.856;2023-07-28T01:44:19;99282.22;;;18.13
48854;BMP280;34673;52.808;17.856;2023-07-28T01:47:28;99254.09;;;18.01
48854;BMP280;34673;52.808;17.856;2023-07-28T01:50:53;99263.19;;;18.10
48854;BMP280;34673;52.808;17.856;2023-07-28T01:53:29;99240.44;;;17.96
48854;BMP280;34673;52.808;17.856;2023-07-28T01:56:02;99248.28;;;17.96
48854;BMP280;34673;52.808;17.856;2023-07-28T01:58:42;99259.31;;;18.01
48854;BMP280;34673;52.808;17.856;2023-07-28T02:01:09;99264.38;;;18.04
48854;BMP280;34673;52.808;17.856;2023-07-28T02:03:36;99255.63;;;18.05
48854;BMP280;34673;52.808;17.856;2023-07-28T02:06:03;99229.97;;;17.96
48854;BMP280;34673;52.808;17.856;2023-07-28T02:08:30;99231.66;;;17.97
48854;BMP280;34673;52.808;17.856;2023-07-28T02:11:03;99218.16;;;17.89
48854;BMP280;34673;52.808;17.856;2023-07-28T02:13:34;99182.13;;;17.62
48854;BMP280;34673;52.808;17.856;2023-07-28T02:16:03;99242.13;;;17.97
48854;BMP280;34673;52.808;17.856;2023-07-28T02:18:30;99238.94;;;17.92
48854;BMP280;34673;52.808;17.856;2023-07-28T02:21:09;99235.72;;;17.87
48854;BMP280;34673;52.808;17.856;2023-07-28T02:23:36;99230.50;;;17.87
48854;BMP280;34673;52.808;17.856;2023-07-28T02:26:06;99237.22;;;17.91
48854;BMP280;34673;52.808;17.856;2023-07-28T02:28:36;99141.41;;;17.26
48854;BMP280;34673;52.808;17.856;2023-07-28T02:31:15;99230.84;;;17.81
48854;BMP280;34673;52.808;17.856;2023-07-28T02:34:07;99232.84;;;17.76
48854;BMP280;34673;52.808;17.856;2023-07-28T02:36:43;99227.78;;;17.72
48854;BMP280;34673;52.808;17.856;2023-07-28T02:39:10;99237.22;;;17.75
48854;BMP280;34673;52.808;17.856;2023-07-28T02:41:44;99231.13;;;17.75
48854;BMP280;34673;52.808;17.856;2023-07-28T02:44:17;99231.31;;;17.71
48854;BMP280;34673;52.808;17.856;2023-07-28T02:46:44;99238.25;;;17.72
48854;BMP280;34673;52.808;17.856;2023-07-28T02:49:11;99240.94;;;17.71
48854;BMP280;34673;52.808;17.856;2023-07-28T02:51:39;99148.84;;;17.18
48854;BMP280;34673;52.808;17.856;2023-07-28T02:54:07;99229.44;;;17.73
48854;BMP280;34673;52.808;17.856;2023-07-28T02:56:34;99218.31;;;17.70
48854;BMP280;34673;52.808;17.856;2023-07-28T02:59:09;99231.06;;;17.76
48854;BMP280;34673;52.808;17.856;2023-07-28T03:01:36;99231.13;;;17.75
48854;BMP280;34673;52.808;17.856;2023-07-28T03:04:04;99225.31;;;17.69
48854;BMP280;34673;52.808;17.856;2023-07-28T03:07:13;99229.78;;;17.67
48854;BMP280;34673;52.808;17.856;2023-07-28T03:09:42;99222.84;;;17.66
48854;BMP280;34673;52.808;17.856;2023-07-28T03:12:18;99184.50;;;17.51
48854;BMP280;34673;52.808;17.856;2023-07-28T03:14:46;99220.84;;;17.71
48854;BMP280;34673;52.808;17.856;2023-07-28T03:17:13;99198.72;;;17.61
48854;BMP280;34673;52.808;17.856;2023-07-28T03:19:40;99225.06;;;17.74
48854;BMP280;34673;52.808;17.856;2023-07-28T03:22:16;99223.06;;;17.79
48854;BMP280;34673;52.808;17.856;2023-07-28T03:24:52;99213.59;;;17.77
48854;BMP280;34673;52.808;17.856;2023-07-28T03:27:28;99211.75;;;17.79
48854;BMP280;34673;52.808;17.856;2023-07-28T03:29:56;99214.53;;;17.76
48854;BMP280;34673;52.808;17.856;2023-07-28T03:32:29;99190.16;;;17.59
48854;BMP280;34673;52.808;17.856;2023-07-28T03:34:56;99207.16;;;17.66
48854;BMP280;34673;52.808;17.856;2023-07-28T03:37:24;99211.72;;;17.63
48854;BMP280;34673;52.808;17.856;2023-07-28T03:39:52;99198.50;;;17.50
48854;BMP280;34673;52.808;17.856;2023-07-28T03:42:38;99213.28;;;17.51
48854;BMP280;34673;52.808;17.856;2023-07-28T03:45:05;99201.63;;;17.41
48854;BMP280;34673;52.808;17.856;2023-07-28T03:47:33;99211.56;;;17.50
48854;BMP280;34673;52.808;17.856;2023-07-28T03:50:07;99205.41;;;17.51
48854;BMP280;34673;52.808;17.856;2023-07-28T03:52:34;99202.03;;;17.49
48854;BMP280;34673;52.808;17.856;2023-07-28T03:55:16;99149.66;;;17.19
48854;BMP280;34673;52.808;17.856;2023-07-28T03:58:54;99193.09;;;17.53
48854;BMP280;34673;52.808;17.856;2023-07-28T04:01:48;99193.34;;;17.48
48854;BMP280;34673;52.808;17.856;2023-07-28T04:04:18;99145.28;;;17.19
48854;BMP280;34673;52.808;17.856;2023-07-28T04:06:47;99195.22;;;17.46
48854;BMP280;34673;52.808;17.856;2023-07-28T04:09:39;99191.00;;;17.44
48854;BMP280;34673;52.808;17.856;2023-07-28T04:12:37;99186.28;;;17.35
48854;BMP280;34673;52.808;17.856;2023-07-28T04:15:05;99185.50;;;17.33
48854;BMP280;34673;52.808;17.856;2023-07-28T04:17:32;99155.25;;;17.13
48854;BMP280;34673;52.808;17.856;2023-07-28T04:19:59;99186.41;;;17.32
48854;BMP280;34673;52.808;17.856;2023-07-28T04:22:27;99145.81;;;17.10
48854;BMP280;34673;52.808;17.856;2023-07-28T04:24:57;99142.75;;;17.02
48854;BMP280;34673;52.808;17.856;2023-07-28T04:27:30;99166.19;;;17.19
48854;BMP280;34673;52.808;17.856;2023-07-28T04:30:01;99170.59;;;17.19
48854;BMP280;34673;52.808;17.856;2023-07-28T04:32:31;99170.66;;;17.17
48854;BMP280;34673;52.808;17.856;2023-07-28T04:35:33;99169.41;;;17.24
48854;BMP280;34673;52.808;17.856;2023-07-28T04:38:36;99175.53;;;17.23
48854;BMP280;34673;52.808;17.856;2023-07-28T04:41:09;99121.56;;;16.91
48854;BMP280;34673;52.808;17.856;2023-07-28T04:43:52;99170.41;;;17.22
48854;BMP280;34673;52.808;17.856;2023-07-28T04:46:22;99116.78;;;16.99
48854;BMP280;34673;52.808;17.856;2023-07-28T04:48:54;99159.13;;;17.21
48854;BMP280;34673;52.808;17.856;2023-07-28T04:51:41;99102.97;;;16.97
48854;BMP280;34673;52.808;17.856;2023-07-28T04:54:49;99148.66;;;17.21
48854;BMP280;34673;52.808;17.856;2023-07-28T04:58:08;99141.91;;;17.17
48854;BMP280;34673;52.808;17.856;2023-07-28T05:00:45;99139.06;;;17.22
48854;BMP280;34673;52.808;17.856;2023-07-28T05:03:19;99141.72;;;17.20
48854;BMP280;34673;52.808;17.856;2023-07-28T05:06:09;99108.69;;;17.03
48854;BMP280;34673;52.808;17.856;2023-07-28T05:08:42;99140.22;;;17.16
48854;BMP280;34673;52.808;17.856;2023-07-28T05:11:16;99126.56;;;17.11
48854;BMP280;34673;52.808;17.856;2023-07-28T05:14:19;99105.41;;;17.00
48854;BMP280;34673;52.808;17.856;2023-07-28T05:16:55;99140.72;;;17.23
48854;BMP280;34673;52.808;17.856;2023-07-28T05:19:55;99134.66;;;17.22
48854;BMP280;34673;52.808;17.856;2023-07-28T05:22:54;99099.34;;;16.99
48854;BMP280;34673;52.808;17.856;2023-07-28T05:25:35;99127.94;;;17.18
48854;BMP280;34673;52.808;17.856;2023-07-28T05:28:08;99139.72;;;17.25
48854;BMP280;34673;52.808;17.856;2023-07-28T05:30:39;99134.84;;;17.19
48854;BMP280;34673;52.808;17.856;2023-07-28T05:33:31;99147.47;;;17.27
48854;BMP280;34673;52.808;17.856;2023-07-28T05:36:37;99134.31;;;17.28
48854;BMP280;34673;52.808;17.856;2023-07-28T05:39:31;99126.81;;;17.22
48854;BMP280;34673;52.808;17.856;2023-07-28T05:41:58;99118.97;;;17.22
48854;BMP280;34673;52.808;17.856;2023-07-28T05:44:26;99127.25;;;17.31
48854;BMP280;34673;52.808;17.856;2023-07-28T05:46:53;99134.13;;;17.32
48854;BMP280;34673;52.808;17.856;2023-07-28T05:53:25;99130.97;;;17.26
48854;BMP280;34673;52.808;17.856;2023-07-28T05:55:57;99126.47;;;17.28
48854;BMP280;34673;52.808;17.856;2023-07-28T05:58:33;99130.78;;;17.30
48854;BMP280;34673;52.808;17.856;2023-07-28T06:05:16;99130.44;;;17.36
48854;BMP280;34673;52.808;17.856;2023-07-28T06:12:22;99100.44;;;17.11
48854;BMP280;34673;52.808;17.856;2023-07-28T06:18:47;99123.38;;;17.38
48854;BMP280;34673;52.808;17.856;2023-07-28T06:25:11;99109.78;;;17.47
48854;BMP280;34673;52.808;17.856;2023-07-28T06:36:30;99094.63;;;17.68
48854;BMP280;34673;52.808;17.856;2023-07-28T06:44:31;99098.84;;;17.70
48854;BMP280;34673;52.808;17.856;2023-07-28T06:50:59;99112.38;;;17.79
48854;BMP280;34673;52.808;17.856;2023-07-28T06:54:22;99106.59;;;17.88
48854;BMP280;34673;52.808;17.856;2023-07-28T06:57:18;99094.94;;;17.78
48854;BMP280;34673;52.808;17.856;2023-07-28T06:59:52;99086.53;;;17.72
48854;BMP280;34673;52.808;17.856;2023-07-28T07:03:10;99104.38;;;17.96
48854;BMP280;34673;52.808;17.856;2023-07-28T07:06:34;99123.06;;;18.04
48854;BMP280;34673;52.808;17.856;2023-07-28T07:14:10;99103.28;;;18.14
48854;BMP280;34673;52.808;17.856;2023-07-28T07:17:54;99102.25;;;18.17
48854;BMP280;34673;52.808;17.856;2023-07-28T07:25:42;99111.44;;;18.24
48854;BMP280;34673;52.808;17.856;2023-07-28T07:28:09;99087.59;;;18.14
48854;BMP280;34673;52.808;17.856;2023-07-28T07:30:37;99109.09;;;18.34
48854;BMP280;34673;52.808;17.856;2023-07-28T07:33:04;99102.00;;;18.36
48854;BMP280;34673;52.808;17.856;2023-07-28T07:35:36;99115.66;;;18.41
48854;BMP280;34673;52.808;17.856;2023-07-28T07:38:04;99124.28;;;18.43
48854;BMP280;34673;52.808;17.856;2023-07-28T07:40:35;99102.78;;;18.38
48854;BMP280;34673;52.808;17.856;2023-07-28T07:43:03;99051.31;;;18.08
48854;BMP280;34673;52.808;17.856;2023-07-28T07:45:31;99119.81;;;18.59
48854;BMP280;34673;52.808;17.856;2023-07-28T07:47:59;99093.25;;;18.51
48854;BMP280;34673;52.808;17.856;2023-07-28T07:50:26;99102.00;;;18.65
48854;BMP280;34673;52.808;17.856;2023-07-28T07:52:53;99106.88;;;18.71
48854;BMP280;34673;52.808;17.856;2023-07-28T07:55:20;99114.38;;;18.77
48854;BMP280;34673;52.808;17.856;2023-07-28T07:57:50;99097.72;;;18.78
48854;BMP280;34673;52.808;17.856;2023-07-28T08:00:24;99062.00;;;18.63
48854;BMP280;34673;52.808;17.856;2023-07-28T08:02:51;99106.34;;;18.80
48854;BMP280;34673;52.808;17.856;2023-07-28T08:05:18;99108.41;;;18.75
48854;BMP280;34673;52.808;17.856;2023-07-28T08:07:46;99108.75;;;18.69
48854;BMP280;34673;52.808;17.856;2023-07-28T08:10:14;99113.03;;;18.70
48854;BMP280;34673;52.808;17.856;2023-07-28T08:12:41;99118.03;;;18.74
48854;BMP280;34673;52.808;17.856;2023-07-28T08:15:11;99097.81;;;18.62
48854;BMP280;34673;52.808;17.856;2023-07-28T08:17:39;99091.72;;;18.61
48854;BMP280;34673;52.808;17.856;2023-07-28T08:20:09;99098.84;;;18.74
48854;BMP280;34673;52.808;17.856;2023-07-28T08:22:36;99095.03;;;18.79
48854;BMP280;34673;52.808;17.856;2023-07-28T08:25:04;99099.88;;;18.86
48854;BMP280;34673;52.808;17.856;2023-07-28T08:27:31;99080.13;;;18.80
48854;BMP280;34673;52.808;17.856;2023-07-28T08:29:59;99109.66;;;19.11
48854;BMP280;34673;52.808;17.856;2023-07-28T08:32:26;99065.34;;;18.93
48854;BMP280;34673;52.808;17.856;2023-07-28T08:34:54;99101.50;;;19.15
48854;BMP280;34673;52.808;17.856;2023-07-28T08:37:22;99086.63;;;19.16
48854;BMP280;34673;52.808;17.856;2023-07-28T08:39:49;99080.59;;;19.28
48854;BMP280;34673;52.808;17.856;2023-07-28T08:42:16;99100.06;;;19.51
48854;BMP280;34673;52.808;17.856;2023-07-28T08:44:44;99094.75;;;19.53
48854;BMP280;34673;52.808;17.856;2023-07-28T08:47:12;99100.91;;;19.66
48854;BMP280;34673;52.808;17.856;2023-07-28T08:49:40;99090.97;;;19.57
48854;BMP280;34673;52.808;17.856;2023-07-28T08:52:08;99097.06;;;19.57
48854;BMP280;34673;52.808;17.856;2023-07-28T08:54:36;99106.31;;;19.63
48854;BMP280;34673;52.808;17.856;2023-07-28T08:57:03;99102.97;;;19.61
48854;BMP280;34673;52.808;17.856;2023-07-28T08:59:30;99081.28;;;19.44
48854;BMP280;34673;52.808;17.856;2023-07-28T09:01:58;99104.09;;;19.57
48854;BMP280;34673;52.808;17.856;2023-07-28T09:04:26;99106.91;;;19.54
48854;BMP280;34673;52.808;17.856;2023-07-28T09:06:53;99114.22;;;19.48
48854;BMP280;34673;52.808;17.856;2023-07-28T09:09:22;99108.97;;;19.48
48854;BMP280;34673;52.808;17.856;2023-07-28T09:11:52;99103.94;;;19.45
48854;BMP280;34673;52.808;17.856;2023-07-28T09:14:21;99105.63;;;19.46
48854;BMP280;34673;52.808;17.856;2023-07-28T09:16:50;99108.97;;;19.48
48854;BMP280;34673;52.808;17.856;2023-07-28T09:19:19;99105.03;;;19.56
48854;BMP280;34673;52.808;17.856;2023-07-28T09:21:57;99112.16;;;19.54
48854;BMP280;34673;52.808;17.856;2023-07-28T09:24:32;99113.66;;;19.58
48854;BMP280;34673;52.808;17.856;2023-07-28T09:27:01;99111.44;;;19.52
48854;BMP280;34673;52.808;17.856;2023-07-28T09:29:29;99111.78;;;19.60
48854;BMP280;34673;52.808;17.856;2023-07-28T09:32:04;99098.53;;;19.61
48854;BMP280;34673;52.808;17.856;2023-07-28T09:34:32;99089.28;;;19.56
48854;BMP280;34673;52.808;17.856;2023-07-28T09:37:00;99104.28;;;19.68
48854;BMP280;34673;52.808;17.856;2023-07-28T09:39:28;99097.31;;;19.67
48854;BMP280;34673;52.808;17.856;2023-07-28T09:41:56;99101.44;;;19.71
48854;BMP280;34673;52.808;17.856;2023-07-28T09:44:26;99100.50;;;19.72
48854;BMP280;34673;52.808;17.856;2023-07-28T09:46:55;99100.50;;;19.72
48854;BMP280;34673;52.808;17.856;2023-07-28T09:49:36;99083.44;;;19.65
48854;BMP280;34673;52.808;17.856;2023-07-28T09:52:06;99107.03;;;19.79
48854;BMP280;34673;52.808;17.856;2023-07-28T09:54:39;99094.44;;;19.84
48854;BMP280;34673;52.808;17.856;2023-07-28T09:57:12;99097.53;;;20.04
48854;BMP280;34673;52.808;17.856;2023-07-28T09:59:45;99045.56;;;20.09
48854;BMP280;34673;52.808;17.856;2023-07-28T10:02:14;99088.00;;;20.54
48854;BMP280;34673;52.808;17.856;2023-07-28T10:04:42;99084.81;;;20.74
48854;BMP280;34673;52.808;17.856;2023-07-28T10:07:10;99080.78;;;20.81
48854;BMP280;34673;52.808;17.856;2023-07-28T10:09:38;99065.03;;;20.81
48854;BMP280;34673;52.808;17.856;2023-07-28T10:12:06;99052.16;;;20.90
48854;BMP280;34673;52.808;17.856;2023-07-28T10:14:34;99081.03;;;21.15
48854;BMP280;34673;52.808;17.856;2023-07-28T10:17:04;99081.25;;;21.12
48854;BMP280;34673;52.808;17.856;2023-07-28T10:19:35;99087.66;;;21.08
48854;BMP280;34673;52.808;17.856;2023-07-28T10:22:10;99058.38;;;20.89
48854;BMP280;34673;52.808;17.856;2023-07-28T10:25:04;99071.31;;;20.92
48854;BMP280;34673;52.808;17.856;2023-07-28T10:27:37;99082.56;;;20.94
48854;BMP280;34673;52.808;17.856;2023-07-28T10:30:11;99087.75;;;20.83
48854;BMP280;34673;52.808;17.856;2023-07-28T10:32:40;99091.34;;;20.69
48854;BMP280;34673;52.808;17.856;2023-07-28T10:37:37;99084.75;;;20.63
48854;BMP280;34673;52.808;17.856;2023-07-28T10:40:33;99087.44;;;21.11
48854;BMP280;34673;52.808;17.856;2023-07-28T10:43:05;99086.53;;;21.60
48854;BMP280;34673;52.808;17.856;2023-07-28T10:45:33;99088.75;;;21.78
48854;BMP280;34673;52.808;17.856;2023-07-28T10:48:00;99088.03;;;21.76
48854;BMP280;34673;52.808;17.856;2023-07-28T10:50:31;99080.56;;;21.58
48854;BMP280;34673;52.808;17.856;2023-07-28T10:52:59;99082.50;;;21.43
48854;BMP280;34673;52.808;17.856;2023-07-28T10:55:27;99088.75;;;21.30
48854;BMP280;34673;52.808;17.856;2023-07-28T10:57:55;99090.34;;;21.19
48854;BMP280;34673;52.808;17.856;2023-07-28T11:00:24;99093.66;;;21.10
48854;BMP280;34673;52.808;17.856;2023-07-28T11:02:53;99078.47;;;20.90
48854;BMP280;34673;52.808;17.856;2023-07-28T11:05:22;99048.66;;;20.65
48854;BMP280;34673;52.808;17.856;2023-07-28T11:07:55;99101.06;;;20.92
48854;BMP280;34673;52.808;17.856;2023-07-28T11:10:24;99082.06;;;20.76
48854;BMP280;34673;52.808;17.856;2023-07-28T11:12:52;99107.28;;;20.78
48854;BMP280;34673;52.808;17.856;2023-07-28T11:15:22;99104.50;;;20.69
48854;BMP280;34673;52.808;17.856;2023-07-28T11:17:58;99079.75;;;20.46
48854;BMP280;34673;52.808;17.856;2023-07-28T11:20:32;99111.00;;;20.63
48854;BMP280;34673;52.808;17.856;2023-07-28T11:23:04;99102.25;;;20.63
48854;BMP280;34673;52.808;17.856;2023-07-28T11:25:41;99105.63;;;20.65
48854;BMP280;34673;52.808;17.856;2023-07-28T11:28:09;99109.84;;;20.67
48854;BMP280;34673;52.808;17.856;2023-07-28T11:30:37;99072.41;;;20.38
48854;BMP280;34673;52.808;17.856;2023-07-28T11:33:09;99117.19;;;20.62
48854;BMP280;34673;52.808;17.856;2023-07-28T11:35:38;99109.66;;;20.57
48854;BMP280;34673;52.808;17.856;2023-07-28T11:38:07;99105.44;;;20.55
48854;BMP280;34673;52.808;17.856;2023-07-28T11:40:36;99139.25;;;20.47
48854;BMP280;34673;52.808;17.856;2023-07-28T11:47:20;99131.03;;;19.73
48854;BMP280;34673;52.808;17.856;2023-07-28T11:49:48;99164.03;;;19.63
48854;BMP280;34673;52.808;17.856;2023-07-28T11:52:17;99159.78;;;19.47
48854;BMP280;34673;52.808;17.856;2023-07-28T11:54:47;99098.44;;;18.94
48854;BMP280;34673;52.808;17.856;2023-07-28T11:57:14;99166.38;;;19.26
48854;BMP280;34673;52.808;17.856;2023-07-28T11:59:41;99153.28;;;19.12
48854;BMP280;34673;52.808;17.856;2023-07-28T12:02:09;99165.84;;;19.07
48854;BMP280;34673;52.808;17.856;2023-07-28T12:04:40;99154.03;;;18.99
48854;BMP280;34673;52.808;17.856;2023-07-28T12:07:16;99168.81;;;19.15
48854;BMP280;34673;52.808;17.856;2023-07-28T12:12:45;99140.81;;;19.71
48854;BMP280;34673;52.808;17.856;2023-07-28T12:15:23;99148.97;;;20.19
48854;BMP280;34673;52.808;17.856;2023-07-28T12:18:16;99132.97;;;20.62
48854;BMP280;34673;52.808;17.856;2023-07-28T12:20:50;99133.78;;;21.01
48854;BMP280;34673;52.808;17.856;2023-07-28T12:23:22;99130.09;;;21.28
48854;BMP280;34673;52.808;17.856;2023-07-28T12:25:52;99139.78;;;21.40
48854;BMP280;34673;52.808;17.856;2023-07-28T12:28:25;99137.44;;;21.48
48854;BMP280;34673;52.808;17.856;2023-07-28T12:30:53;99138.81;;;21.65
48854;BMP280;34673;52.808;17.856;2023-07-28T12:33:23;99151.75;;;21.92
48854;BMP280;34673;52.808;17.856;2023-07-28T12:36:05;99144.72;;;22.04
48854;BMP280;34673;52.808;17.856;2023-07-28T12:38:36;99148.03;;;22.19
48854;BMP280;34673;52.808;17.856;2023-07-28T12:41:06;99142.78;;;22.30
48854;BMP280;34673;52.808;17.856;2023-07-28T12:46:06;99153.84;;;22.57
48854;BMP280;34673;52.808;17.856;2023-07-28T12:48:36;99151.47;;;22.54
48854;BMP280;34673;52.808;17.856;2023-07-28T12:51:14;99117.84;;;22.23
48854;BMP280;34673;52.808;17.856;2023-07-28T12:54:01;99165.06;;;22.26
48854;BMP280;34673;52.808;17.856;2023-07-28T12:56:28;99169.78;;;22.09
48854;BMP280;34673;52.808;17.856;2023-07-28T12:58:59;99114.50;;;21.50
48854;BMP280;34673;52.808;17.856;2023-07-28T13:01:28;99164.81;;;21.69
48854;BMP280;34673;52.808;17.856;2023-07-28T13:03:56;99140.19;;;21.34
48854;BMP280;34673;52.808;17.856;2023-07-28T13:06:25;99133.91;;;21.23
48854;BMP280;34673;52.808;17.856;2023-07-28T13:08:52;99139.63;;;21.17
48854;BMP280;34673;52.808;17.856;2023-07-28T13:11:23;99167.97;;;21.25
48854;BMP280;34673;52.808;17.856;2023-07-28T13:13:53;99166.91;;;21.28
48854;BMP280;34673;52.808;17.856;2023-07-28T13:16:21;99146.78;;;21.15
48854;BMP280;34673;52.808;17.856;2023-07-28T13:18:48;99172.63;;;21.21
48854;BMP280;34673;52.808;17.856;2023-07-28T13:21:15;99133.47;;;20.93
48854;BMP280;34673;52.808;17.856;2023-07-28T13:23:43;99170.13;;;21.07
48854;BMP280;34673;52.808;17.856;2023-07-28T13:26:10;99170.75;;;20.98
48854;BMP280;34673;52.808;17.856;2023-07-28T13:28:38;99194.94;;;21.03
48854;BMP280;34673;52.808;17.856;2023-07-28T13:31:06;99196.88;;;21.01
48854;BMP280;34673;52.808;17.856;2023-07-28T13:33:34;99208.66;;;20.95
48854;BMP280;34673;52.808;17.856;2023-07-28T13:36:01;99209.06;;;20.89
48854;BMP280;34673;52.808;17.856;2023-07-28T13:38:31;99212.84;;;20.85
48854;BMP280;34673;52.808;17.856;2023-07-28T13:40:58;99236.19;;;20.90
48854;BMP280;34673;52.808;17.856;2023-07-28T13:43:25;99214.34;;;20.76
48854;BMP280;34673;52.808;17.856;2023-07-28T13:45:53;99189.31;;;20.58
48854;BMP280;34673;52.808;17.856;2023-07-28T13:48:20;99214.53;;;20.73
48854;BMP280;34673;52.808;17.856;2023-07-28T13:50:50;99219.59;;;20.76
48854;BMP280;34673;52.808;17.856;2023-07-28T13:53:21;99232.41;;;20.81
48854;BMP280;34673;52.808;17.856;2023-07-28T13:55:52;99179.59;;;20.46
48854;BMP280;34673;52.808;17.856;2023-07-28T13:58:22;99222.94;;;20.78
48854;BMP280;34673;52.808;17.856;2023-07-28T14:00:50;99247.97;;;20.97
48854;BMP280;34673;52.808;17.856;2023-07-28T14:03:17;99233.38;;;20.93
48854;BMP280;34673;52.808;17.856;2023-07-28T14:05:46;99253.63;;;21.16
48854;BMP280;34673;52.808;17.856;2023-07-28T14:08:19;99228.00;;;21.07
48854;BMP280;34673;52.808;17.856;2023-07-28T14:10:50;99245.13;;;21.25
48854;BMP280;34673;52.808;17.856;2023-07-28T14:13:18;99236.78;;;21.32
48854;BMP280;34673;52.808;17.856;2023-07-28T14:15:49;99231.75;;;21.29
48854;BMP280;34673;52.808;17.856;2023-07-28T14:18:17;99165.63;;;20.84
48854;BMP280;34673;52.808;17.856;2023-07-28T14:20:45;99246.03;;;21.24
48854;BMP280;34673;52.808;17.856;2023-07-28T14:23:24;99249.84;;;21.20
48854;BMP280;34673;52.808;17.856;2023-07-28T14:25:54;99245.97;;;21.13
48854;BMP280;34673;52.808;17.856;2023-07-28T14:28:26;99262.69;;;21.12
48854;BMP280;34673;52.808;17.856;2023-07-28T14:30:58;99258.06;;;21.03
48854;BMP280;34673;52.808;17.856;2023-07-28T14:33:25;99258.91;;;21.03
48854;BMP280;34673;52.808;17.856;2023-07-28T14:35:54;99251.97;;;21.15
48854;BMP280;34673;52.808;17.856;2023-07-28T14:38:21;99262.78;;;21.36
48854;BMP280;34673;52.808;17.856;2023-07-28T14:40:49;99268.38;;;21.44
48854;BMP280;34673;52.808;17.856;2023-07-28T14:43:18;99248.59;;;21.39
48854;BMP280;34673;52.808;17.856;2023-07-28T14:45:49;99266.22;;;21.62
48854;BMP280;34673;52.808;17.856;2023-07-28T14:48:18;99277.03;;;21.71
48854;BMP280;34673;52.808;17.856;2023-07-28T14:50:46;99270.84;;;21.72
48854;BMP280;34673;52.808;17.856;2023-07-28T14:53:36;99255.47;;;21.65
48854;BMP280;34673;52.808;17.856;2023-07-28T14:56:04;99164.50;;;21.24
48854;BMP280;34673;52.808;17.856;2023-07-28T14:58:32;99271.41;;;21.88
48854;BMP280;34673;52.808;17.856;2023-07-28T15:01:00;99250.13;;;21.91
48854;BMP280;34673;52.808;17.856;2023-07-28T15:03:29;99255.69;;;21.99
48854;BMP280;34673;52.808;17.856;2023-07-28T15:05:59;99276.81;;;22.10
48854;BMP280;34673;52.808;17.856;2023-07-28T15:08:28;99217.22;;;21.73
48854;BMP280;34673;52.808;17.856;2023-07-28T15:10:57;99282.56;;;22.16
48854;BMP280;34673;52.808;17.856;2023-07-28T15:13:24;99288.31;;;22.09
48854;BMP280;34673;52.808;17.856;2023-07-28T15:15:52;99250.50;;;21.74
48854;BMP280;34673;52.808;17.856;2023-07-28T15:18:19;99270.63;;;21.75
48854;BMP280;34673;52.808;17.856;2023-07-28T15:20:46;99275.66;;;21.78
48854;BMP280;34673;52.808;17.856;2023-07-28T15:23:13;99289.94;;;21.86
48854;BMP280;34673;52.808;17.856;2023-07-28T15:25:41;99275.66;;;21.78
48854;BMP280;34673;52.808;17.856;2023-07-28T15:28:13;99207.75;;;21.46
48854;BMP280;34673;52.808;17.856;2023-07-28T15:30:41;99271.41;;;21.88
48854;BMP280;34673;52.808;17.856;2023-07-28T15:33:16;99279.31;;;21.88
48854;BMP280;34673;52.808;17.856;2023-07-28T15:35:47;99265.56;;;21.72
48854;BMP280;34673;52.808;17.856;2023-07-28T15:38:15;99288.69;;;21.79
48854;BMP280;34673;52.808;17.856;2023-07-28T15:40:42;99213.84;;;21.34
48854;BMP280;34673;52.808;17.856;2023-07-28T15:43:09;99221.63;;;21.35
48854;BMP280;34673;52.808;17.856;2023-07-28T15:45:37;99301.97;;;21.78
48854;BMP280;34673;52.808;17.856;2023-07-28T15:48:06;99301.25;;;21.76
48854;BMP280;34673;52.808;17.856;2023-07-28T15:50:34;99262.06;;;21.47
48854;BMP280;34673;52.808;17.856;2023-07-28T15:53:02;99297.16;;;21.72
48854;BMP280;34673;52.808;17.856;2023-07-28T15:55:34;99234.91;;;21.34
48854;BMP280;34673;52.808;17.856;2023-07-28T15:58:03;99309.13;;;21.76
48854;BMP280;34673;52.808;17.856;2023-07-28T16:00:30;99306.28;;;21.79
48854;BMP280;34673;52.808;17.856;2023-07-28T16:02:58;99333.66;;;21.89
48854;BMP280;34673;52.808;17.856;2023-07-28T16:05:26;99324.06;;;21.88
48854;BMP280;34673;52.808;17.856;2023-07-28T16:07:53;99323.22;;;21.87